createdAt,value
2023-05-07T00:00:30.590Z,994.16
2023-05-07T00:01:30.583Z,994.17
2023-05-07T00:02:30.633Z,994.18
2023-05-07T00:03:30.608Z,994.16
2023-05-07T00:04:30.511Z,994.18
2023-05-07T00:05:30.461Z,994.19
2023-05-07T00:06:31.252Z,994.20
2023-05-07T00:07:30.443Z,994.12
2023-05-07T00:08:30.432Z,994.19
2023-05-07T00:09:30.437Z,994.16
2023-05-07T00:10:30.421Z,994.18
2023-05-07T00:11:30.416Z,994.16
2023-05-07T00:12:30.404Z,994.21
2023-05-07T00:13:30.419Z,994.20
2023-05-07T00:14:30.386Z,994.21
2023-05-07T00:15:30.385Z,994.20
2023-05-07T00:16:30.428Z,994.13
2023-05-07T00:17:30.521Z,994.16
2023-05-07T00:18:30.371Z,994.13
2023-05-07T00:19:30.382Z,994.27
2023-05-07T00:20:30.350Z,994.16
2023-05-07T00:22:12.273Z,994.14
2023-05-07T00:23:12.280Z,994.11
2023-05-07T00:24:12.267Z,994.16
2023-05-07T00:25:12.277Z,994.15
2023-05-07T00:26:12.252Z,994.20
2023-05-07T00:27:12.249Z,994.18
2023-05-07T00:28:13.339Z,994.18
2023-05-07T00:29:13.314Z,994.15
2023-05-07T00:30:13.430Z,994.11
2023-05-07T00:31:13.365Z,994.11
2023-05-07T00:32:13.438Z,994.16
2023-05-07T00:33:13.359Z,994.08
2023-05-07T00:34:13.278Z,994.10
2023-05-07T00:35:13.388Z,994.15
2023-05-07T00:36:13.273Z,994.01
2023-05-07T00:37:13.251Z,994.08
2023-05-07T00:38:13.258Z,994.11
2023-05-07T00:39:13.928Z,994.07
2023-05-07T00:40:13.387Z,994.11
2023-05-07T00:41:13.246Z,994.09
2023-05-07T00:42:13.224Z,994.16
2023-05-07T00:43:13.223Z,994.14
2023-05-07T00:44:13.206Z,994.14
2023-05-07T00:45:13.195Z,994.15
2023-05-07T00:46:13.239Z,994.19
2023-05-07T00:47:13.173Z,994.16
2023-05-07T00:48:13.203Z,994.18
2023-05-07T00:49:13.167Z,994.23
2023-05-07T00:50:13.458Z,994.19
2023-05-07T00:51:13.167Z,994.17
2023-05-07T00:52:13.130Z,994.23
2023-05-07T00:53:13.134Z,994.20
2023-05-07T00:54:13.112Z,994.13
2023-05-07T00:55:13.216Z,994.14
2023-05-07T00:56:13.105Z,994.11
2023-05-07T00:57:13.110Z,994.09
2023-05-07T00:58:13.083Z,994.15
2023-05-07T00:59:13.126Z,994.08
2023-05-07T01:00:13.391Z,994.08
2023-05-07T01:01:13.116Z,994.02
2023-05-07T01:02:13.048Z,994.01
2023-05-07T01:03:14.063Z,994.06
2023-05-07T01:04:13.063Z,994.00
2023-05-07T01:05:13.143Z,994.02
2023-05-07T01:06:13.027Z,994.10
2023-05-07T01:07:13.017Z,994.06
2023-05-07T01:08:13.005Z,993.96
2023-05-07T01:09:13.014Z,993.96
2023-05-07T01:10:13.291Z,993.93
2023-05-07T01:11:13.044Z,993.92
2023-05-07T01:12:12.979Z,993.98
2023-05-07T01:13:13.022Z,993.95
2023-05-07T01:14:12.972Z,993.95
2023-05-07T01:15:12.960Z,993.97
2023-05-07T01:16:12.950Z,993.99
2023-05-07T01:17:14.035Z,994.05
2023-05-07T01:18:12.969Z,994.02
2023-05-07T01:19:12.933Z,993.99
2023-05-07T01:20:13.127Z,993.97
2023-05-07T01:21:12.989Z,993.95
2023-05-07T01:22:12.930Z,993.94
2023-05-07T01:23:12.917Z,994.01
2023-05-07T01:24:12.924Z,993.97
2023-05-07T01:25:12.885Z,993.96
2023-05-07T01:26:12.897Z,994.00
2023-05-07T01:27:12.870Z,994.03
2023-05-07T01:28:12.862Z,994.00
2023-05-07T01:29:12.857Z,994.01
2023-05-07T01:30:13.044Z,994.07
2023-05-07T01:31:12.843Z,994.06
2023-05-07T01:32:12.826Z,994.06
2023-05-07T01:33:12.816Z,994.05
2023-05-07T01:34:12.803Z,994.04
2023-05-07T01:35:12.799Z,994.01
2023-05-07T01:36:12.792Z,993.97
2023-05-07T01:37:12.873Z,994.03
2023-05-07T01:38:12.784Z,994.00
2023-05-07T01:39:12.769Z,993.96
2023-05-07T01:40:13.541Z,993.97
2023-05-07T01:41:12.755Z,994.00
2023-05-07T01:42:12.749Z,993.96
2023-05-07T01:43:12.757Z,993.98
2023-05-07T01:44:12.730Z,994.09
2023-05-07T01:45:12.741Z,994.04
2023-05-07T01:46:12.718Z,993.92
2023-05-07T01:47:12.716Z,993.98
2023-05-07T01:48:12.713Z,994.02
2023-05-07T01:49:12.697Z,994.01
2023-05-07T01:50:13.027Z,993.95
2023-05-07T01:51:12.668Z,993.99
2023-05-07T01:52:12.664Z,993.96
2023-05-07T01:53:12.731Z,993.93
2023-05-07T01:54:12.643Z,993.94
2023-05-07T01:55:12.644Z,993.92
2023-05-07T01:56:12.630Z,993.93
2023-05-07T01:57:12.612Z,993.94
2023-05-07T01:58:13.046Z,993.88
2023-05-07T01:59:12.609Z,993.95
2023-05-07T02:00:12.857Z,994.01
2023-05-07T02:01:12.729Z,993.91
2023-05-07T02:02:12.640Z,993.93
2023-05-07T02:03:12.682Z,993.92
2023-05-07T02:04:12.643Z,993.95
2023-05-07T02:05:12.557Z,993.94
2023-05-07T02:06:12.548Z,993.98
2023-05-07T02:07:12.538Z,993.95
2023-05-07T02:08:12.558Z,993.95
2023-05-07T02:09:12.609Z,993.96
2023-05-07T02:10:12.755Z,993.92
2023-05-07T02:11:13.475Z,993.90
2023-05-07T02:12:12.505Z,994.04
2023-05-07T02:13:12.526Z,993.90
2023-05-07T02:14:12.508Z,993.87
2023-05-07T02:15:12.488Z,993.95
2023-05-07T02:16:12.505Z,993.84
2023-05-07T02:17:12.471Z,993.97
2023-05-07T02:18:12.469Z,993.94
2023-05-07T02:19:12.456Z,993.98
2023-05-07T02:20:12.501Z,994.03
2023-05-07T02:21:12.483Z,994.02
2023-05-07T02:22:12.444Z,994.16
2023-05-07T02:23:12.423Z,994.09
2023-05-07T02:24:12.417Z,994.10
2023-05-07T02:25:12.591Z,994.07
2023-05-07T02:26:12.399Z,994.09
2023-05-07T02:27:13.463Z,994.06
2023-05-07T02:28:12.444Z,994.09
2023-05-07T02:29:12.373Z,993.99
2023-05-07T02:30:13.055Z,993.98
2023-05-07T02:31:12.360Z,993.99
2023-05-07T02:32:12.437Z,994.02
2023-05-07T02:33:12.366Z,994.01
2023-05-07T02:34:12.349Z,993.96
2023-05-07T02:35:12.967Z,993.94
2023-05-07T02:36:13.050Z,993.97
2023-05-07T02:37:12.306Z,993.97
2023-05-07T02:38:12.322Z,993.99
2023-05-07T02:39:12.298Z,993.98
2023-05-07T02:40:12.602Z,994.00
2023-05-07T02:41:12.367Z,993.99
2023-05-07T02:42:12.285Z,993.99
2023-05-07T02:43:13.043Z,993.97
2023-05-07T02:44:12.255Z,993.98
2023-05-07T02:45:12.264Z,993.99
2023-05-07T02:46:13.095Z,994.04
2023-05-07T02:47:12.243Z,993.98
2023-05-07T02:48:12.229Z,994.03
2023-05-07T02:49:12.222Z,994.03
2023-05-07T02:50:12.439Z,994.02
2023-05-07T02:51:12.203Z,993.99
2023-05-07T02:52:12.205Z,993.96
2023-05-07T02:53:12.180Z,993.98
2023-05-07T02:54:12.186Z,993.95
2023-05-07T02:55:12.202Z,993.98
2023-05-07T02:56:12.169Z,994.02
2023-05-07T02:57:12.226Z,993.98
2023-05-07T02:58:12.137Z,994.01
2023-05-07T02:59:12.121Z,993.96
2023-05-07T03:00:13.174Z,994.01
2023-05-07T03:01:12.185Z,994.00
2023-05-07T03:02:12.128Z,994.03
2023-05-07T03:03:12.164Z,994.02
2023-05-07T03:04:12.150Z,994.05
2023-05-07T03:05:12.105Z,993.97
2023-05-07T03:06:12.074Z,994.05
2023-05-07T03:07:12.068Z,994.00
2023-05-07T03:08:12.057Z,994.03
2023-05-07T03:09:12.057Z,994.14
2023-05-07T03:10:12.305Z,994.11
2023-05-07T03:11:12.053Z,994.01
2023-05-07T03:12:12.033Z,994.08
2023-05-07T03:13:12.170Z,994.07
2023-05-07T03:14:12.026Z,994.11
2023-05-07T03:15:12.022Z,994.12
2023-05-07T03:16:12.019Z,994.08
2023-05-07T03:17:11.990Z,994.15
2023-05-07T03:18:12.084Z,994.12
2023-05-07T03:19:11.992Z,994.15
2023-05-07T03:20:13.225Z,994.04
2023-05-07T03:21:11.957Z,994.08
2023-05-07T03:22:11.949Z,994.10
2023-05-07T03:23:11.959Z,994.10
2023-05-07T03:24:11.935Z,994.03
2023-05-07T03:25:11.937Z,994.12
2023-05-07T03:26:12.499Z,994.08
2023-05-07T03:27:11.925Z,993.99
2023-05-07T03:28:11.908Z,994.11
2023-05-07T03:29:11.983Z,994.01
2023-05-07T03:30:12.045Z,994.11
2023-05-07T03:31:12.546Z,993.97
2023-05-07T03:32:11.997Z,994.03
2023-05-07T03:33:11.895Z,994.03
2023-05-07T03:34:11.858Z,994.05
2023-05-07T03:35:11.856Z,994.04
2023-05-07T03:36:11.843Z,994.06
2023-05-07T03:37:11.830Z,994.05
2023-05-07T03:38:11.811Z,994.06
2023-05-07T03:39:11.813Z,994.08
2023-05-07T03:40:12.285Z,994.11
2023-05-07T03:41:11.841Z,994.14
2023-05-07T03:42:11.789Z,994.15
2023-05-07T03:43:11.784Z,994.09
2023-05-07T03:44:11.775Z,994.20
2023-05-07T03:45:11.768Z,994.18
2023-05-07T03:46:11.805Z,994.21
2023-05-07T03:47:11.770Z,994.22
2023-05-07T03:48:11.815Z,994.27
2023-05-07T03:49:11.738Z,994.28
2023-05-07T03:50:11.979Z,994.21
2023-05-07T03:51:11.716Z,994.27
2023-05-07T03:52:11.888Z,994.29
2023-05-07T03:53:11.718Z,994.30
2023-05-07T03:54:11.692Z,994.30
2023-05-07T03:55:11.697Z,994.23
2023-05-07T03:56:11.671Z,994.26
2023-05-07T03:57:11.692Z,994.34
2023-05-07T03:58:11.681Z,994.22
2023-05-07T03:59:11.660Z,994.29
2023-05-07T04:00:11.879Z,994.31
2023-05-07T04:01:11.641Z,994.33
2023-05-07T04:02:11.656Z,994.41
2023-05-07T04:03:11.745Z,994.49
2023-05-07T04:04:11.699Z,994.40
2023-05-07T04:05:11.614Z,994.36
2023-05-07T04:06:11.611Z,994.39
2023-05-07T04:07:11.597Z,994.50
2023-05-07T04:08:11.593Z,994.45
2023-05-07T04:09:11.601Z,994.39
2023-05-07T04:10:11.781Z,994.44
2023-05-07T04:11:11.585Z,994.56
2023-05-07T04:12:11.567Z,994.44
2023-05-07T04:13:11.589Z,994.43
2023-05-07T04:14:11.552Z,994.48
2023-05-07T04:15:11.534Z,994.45
2023-05-07T04:16:11.634Z,994.50
2023-05-07T04:17:11.518Z,994.51
2023-05-07T04:18:11.520Z,994.48
2023-05-07T04:19:11.505Z,994.56
2023-05-07T04:20:11.747Z,994.52
2023-05-07T04:21:11.543Z,994.42
2023-05-07T04:22:12.484Z,994.47
2023-05-07T04:23:11.987Z,994.46
2023-05-07T04:24:11.467Z,994.47
2023-05-07T04:25:11.476Z,994.45
2023-05-07T04:26:11.461Z,994.46
2023-05-07T04:27:11.434Z,994.48
2023-05-07T04:28:11.430Z,994.45
2023-05-07T04:29:11.431Z,994.43
2023-05-07T04:30:11.727Z,994.42
2023-05-07T04:31:11.436Z,994.44
2023-05-07T04:32:11.504Z,994.42
2023-05-07T04:33:11.436Z,994.43
2023-05-07T04:34:11.397Z,994.39
2023-05-07T04:35:11.383Z,994.40
2023-05-07T04:36:11.396Z,994.39
2023-05-07T04:37:11.414Z,994.35
2023-05-07T04:38:11.369Z,994.40
2023-05-07T04:39:11.356Z,994.38
2023-05-07T04:40:11.553Z,994.37
2023-05-07T04:41:11.326Z,994.46
2023-05-07T04:42:11.372Z,994.45
2023-05-07T04:43:11.371Z,994.44
2023-05-07T04:44:11.351Z,994.51
2023-05-07T04:45:11.314Z,994.50
2023-05-07T04:46:11.327Z,994.62
2023-05-07T04:47:11.305Z,994.68
2023-05-07T04:48:11.308Z,994.61
2023-05-07T04:49:11.435Z,994.58
2023-05-07T04:50:11.469Z,994.64
2023-05-07T04:51:11.254Z,994.65
2023-05-07T04:52:11.253Z,994.57
2023-05-07T04:53:11.258Z,994.55
2023-05-07T04:54:11.249Z,994.64
2023-05-07T04:55:11.220Z,994.70
2023-05-07T04:56:11.216Z,994.67
2023-05-07T04:57:11.246Z,994.70
2023-05-07T04:58:11.214Z,994.71
2023-05-07T04:59:11.194Z,994.74
2023-05-07T05:00:11.339Z,994.73
2023-05-07T05:01:11.222Z,994.72
2023-05-07T05:02:11.188Z,994.70
2023-05-07T05:03:11.235Z,994.78
2023-05-07T05:04:11.302Z,994.76
2023-05-07T05:05:11.189Z,994.72
2023-05-07T05:06:11.158Z,994.81
2023-05-07T05:07:11.130Z,994.81
2023-05-07T05:08:11.130Z,994.87
2023-05-07T05:09:11.123Z,994.77
2023-05-07T05:10:11.370Z,994.79
2023-05-07T05:11:11.117Z,994.81
2023-05-07T05:12:11.108Z,994.84
2023-05-07T05:13:11.106Z,994.82
2023-05-07T05:14:11.092Z,994.84
2023-05-07T05:15:11.081Z,994.82
2023-05-07T05:16:11.248Z,994.89
2023-05-07T05:17:11.067Z,994.87
2023-05-07T05:18:11.051Z,994.87
2023-05-07T05:19:11.064Z,994.91
2023-05-07T05:20:11.192Z,994.94
2023-05-07T05:21:11.110Z,994.90
2023-05-07T05:22:11.046Z,994.98
2023-05-07T05:23:11.016Z,994.91
2023-05-07T05:24:11.013Z,994.89
2023-05-07T05:25:10.995Z,994.92
2023-05-07T05:26:10.986Z,994.91
2023-05-07T05:27:11.013Z,994.92
2023-05-07T05:28:10.977Z,994.87
2023-05-07T05:29:11.029Z,994.93
2023-05-07T05:30:11.141Z,994.96
2023-05-07T05:31:10.970Z,994.96
2023-05-07T05:32:10.941Z,994.99
2023-05-07T05:33:11.029Z,994.94
2023-05-07T05:34:10.940Z,995.00
2023-05-07T05:35:10.914Z,994.92
2023-05-07T05:36:10.909Z,994.89
2023-05-07T05:37:10.923Z,994.95
2023-05-07T05:38:10.895Z,994.99
2023-05-07T05:39:11.893Z,994.93
2023-05-07T05:40:11.780Z,994.92
2023-05-07T05:41:10.897Z,994.99
2023-05-07T05:42:10.869Z,995.00
2023-05-07T05:43:10.867Z,995.00
2023-05-07T05:44:10.858Z,994.90
2023-05-07T05:45:10.846Z,994.91
2023-05-07T05:46:10.881Z,995.00
2023-05-07T05:47:10.830Z,994.92
2023-05-07T05:48:10.886Z,994.91
2023-05-07T05:49:10.804Z,994.88
2023-05-07T05:50:11.024Z,994.94
2023-05-07T05:51:10.807Z,994.94
2023-05-07T05:52:11.521Z,994.99
2023-05-07T05:53:11.796Z,994.99
2023-05-07T05:54:10.785Z,994.99
2023-05-07T05:55:11.527Z,995.03
2023-05-07T05:56:10.769Z,995.04
2023-05-07T05:57:10.745Z,995.06
2023-05-07T05:58:10.737Z,995.10
2023-05-07T05:59:10.786Z,995.08
2023-05-07T06:00:10.961Z,995.12
2023-05-07T06:01:10.728Z,995.07
2023-05-07T06:02:10.743Z,995.08
2023-05-07T06:03:10.751Z,995.17
2023-05-07T06:04:10.691Z,995.14
2023-05-07T06:05:10.733Z,995.17
2023-05-07T06:06:10.668Z,995.13
2023-05-07T06:07:11.677Z,995.17
2023-05-07T06:08:10.686Z,995.13
2023-05-07T06:09:10.671Z,995.13
2023-05-07T06:10:11.033Z,995.13
2023-05-07T06:11:10.645Z,995.14
2023-05-07T06:12:10.633Z,995.15
2023-05-07T06:13:10.650Z,995.17
2023-05-07T06:14:10.630Z,995.23
2023-05-07T06:15:10.620Z,995.21
2023-05-07T06:16:11.627Z,995.14
2023-05-07T06:17:10.605Z,995.20
2023-05-07T06:18:10.637Z,995.13
2023-05-07T06:19:10.589Z,995.22
2023-05-07T06:20:10.920Z,995.20
2023-05-07T06:21:11.617Z,995.11
2023-05-07T06:22:11.101Z,995.21
2023-05-07T06:23:10.625Z,995.29
2023-05-07T06:24:10.554Z,995.25
2023-05-07T06:25:11.597Z,995.19
2023-05-07T06:26:11.521Z,995.21
2023-05-07T06:27:10.521Z,995.30
2023-05-07T06:28:10.513Z,995.22
2023-05-07T06:29:11.022Z,995.32
2023-05-07T06:30:11.223Z,995.24
2023-05-07T06:31:10.516Z,995.27
2023-05-07T06:32:10.585Z,995.27
2023-05-07T06:33:10.520Z,995.27
2023-05-07T06:34:10.472Z,995.26
2023-05-07T06:35:10.474Z,995.30
2023-05-07T06:36:10.991Z,995.36
2023-05-07T06:37:10.452Z,995.32
2023-05-07T06:38:10.429Z,995.33
2023-05-07T06:39:10.423Z,995.32
2023-05-07T06:40:10.599Z,995.27
2023-05-07T06:41:10.593Z,995.32
2023-05-07T06:42:10.406Z,995.39
2023-05-07T06:43:10.383Z,995.32
2023-05-07T06:44:10.378Z,995.35
2023-05-07T06:45:10.369Z,995.30
2023-05-07T06:46:10.432Z,995.43
2023-05-07T06:47:10.353Z,995.35
2023-05-07T06:48:10.343Z,995.33
2023-05-07T06:49:10.382Z,995.41
2023-05-07T06:50:10.478Z,995.39
2023-05-07T06:51:10.336Z,995.44
2023-05-07T06:52:10.313Z,995.37
2023-05-07T06:53:10.301Z,995.34
2023-05-07T06:54:10.302Z,995.41
2023-05-07T06:55:10.303Z,995.33
2023-05-07T06:56:10.300Z,995.42
2023-05-07T06:57:10.268Z,995.42
2023-05-07T06:58:10.259Z,995.40
2023-05-07T06:59:10.261Z,995.38
2023-05-07T07:00:10.624Z,995.35
2023-05-07T07:01:10.275Z,995.36
2023-05-07T07:02:10.221Z,995.35
2023-05-07T07:03:10.261Z,995.34
2023-05-07T07:04:10.254Z,995.26
2023-05-07T07:05:10.282Z,995.30
2023-05-07T07:06:10.217Z,995.34
2023-05-07T07:07:10.188Z,995.33
2023-05-07T07:08:10.180Z,995.31
2023-05-07T07:09:10.188Z,995.32
2023-05-07T07:10:10.365Z,995.43
2023-05-07T07:11:10.161Z,995.34
2023-05-07T07:12:10.145Z,995.39
2023-05-07T07:13:10.260Z,995.38
2023-05-07T07:14:10.149Z,995.38
2023-05-07T07:15:10.139Z,995.41
2023-05-07T07:16:10.184Z,995.40
2023-05-07T07:17:10.109Z,995.42
2023-05-07T07:18:10.157Z,995.40
2023-05-07T07:19:10.105Z,995.36
2023-05-07T07:20:11.787Z,995.29
2023-05-07T07:21:11.076Z,995.45
2023-05-07T07:22:10.091Z,995.39
2023-05-07T07:23:10.059Z,995.32
2023-05-07T07:24:10.055Z,995.36
2023-05-07T07:25:10.930Z,995.30
2023-05-07T07:26:11.044Z,995.32
2023-05-07T07:27:11.032Z,995.40
2023-05-07T07:28:10.031Z,995.46
2023-05-07T07:29:11.149Z,995.48
2023-05-07T07:30:10.177Z,995.46
2023-05-07T07:31:10.054Z,995.45
2023-05-07T07:32:09.995Z,995.38
2023-05-07T07:33:10.091Z,995.42
2023-05-07T07:34:09.991Z,995.50
2023-05-07T07:35:09.970Z,995.52
2023-05-07T07:36:09.965Z,995.46
2023-05-07T07:37:09.948Z,995.45
2023-05-07T07:38:09.949Z,995.45
2023-05-07T07:39:09.945Z,995.50
2023-05-07T07:40:10.374Z,995.46
2023-05-07T07:41:09.917Z,995.47
2023-05-07T07:42:09.918Z,995.46
2023-05-07T07:43:10.535Z,995.38
2023-05-07T07:44:09.936Z,995.41
2023-05-07T07:45:09.990Z,995.46
2023-05-07T07:46:09.886Z,995.53
2023-05-07T07:47:09.957Z,995.55
2023-05-07T07:48:09.972Z,995.50
2023-05-07T07:49:09.868Z,995.44
2023-05-07T07:50:10.073Z,995.54
2023-05-07T07:51:09.879Z,995.54
2023-05-07T07:52:09.857Z,995.50
2023-05-07T07:53:09.826Z,995.41
2023-05-07T07:54:09.861Z,995.46
2023-05-07T07:55:10.544Z,995.41
2023-05-07T07:56:09.807Z,995.44
2023-05-07T07:57:09.794Z,995.43
2023-05-07T07:58:09.805Z,995.40
2023-05-07T07:59:09.825Z,995.47
2023-05-07T08:00:09.915Z,995.48
2023-05-07T08:01:09.894Z,995.56
2023-05-07T08:02:09.826Z,995.50
2023-05-07T08:03:09.905Z,995.58
2023-05-07T08:04:09.838Z,995.53
2023-05-07T08:05:10.543Z,995.64
2023-05-07T08:06:09.745Z,995.50
2023-05-07T08:07:10.556Z,995.51
2023-05-07T08:08:09.703Z,995.57
2023-05-07T08:09:09.693Z,995.56
2023-05-07T08:10:10.897Z,995.51
2023-05-07T08:11:09.698Z,995.51
2023-05-07T08:12:10.554Z,995.51
2023-05-07T08:13:09.774Z,995.54
2023-05-07T08:14:09.669Z,995.60
2023-05-07T08:15:09.651Z,995.43
2023-05-07T08:16:10.632Z,995.54
2023-05-07T08:17:09.724Z,995.47
2023-05-07T08:18:09.682Z,995.55
2023-05-07T08:19:09.615Z,995.54
2023-05-07T08:20:10.424Z,995.74
2023-05-07T08:21:09.601Z,995.55
2023-05-07T08:22:09.596Z,995.47
2023-05-07T08:23:09.644Z,995.49
2023-05-07T08:24:10.550Z,995.57
2023-05-07T08:25:09.569Z,995.52
2023-05-07T08:26:09.566Z,995.58
2023-05-07T08:27:09.558Z,995.48
2023-05-07T08:28:10.144Z,995.45
2023-05-07T08:29:10.585Z,995.47
2023-05-07T08:30:09.662Z,995.54
2023-05-07T08:31:09.539Z,995.60
2023-05-07T08:32:09.524Z,995.48
2023-05-07T08:33:09.640Z,995.63
2023-05-07T08:34:10.178Z,995.56
2023-05-07T08:35:10.487Z,995.56
2023-05-07T08:36:09.527Z,995.67
2023-05-07T08:37:10.481Z,995.61
2023-05-07T08:38:11.154Z,995.71
2023-05-07T08:39:09.469Z,995.53
2023-05-07T08:40:12.259Z,995.52
2023-05-07T08:41:11.462Z,995.51
2023-05-07T08:42:09.450Z,995.51
2023-05-07T08:43:09.438Z,995.47
2023-05-07T08:44:09.423Z,995.53
2023-05-07T08:45:09.421Z,995.55
2023-05-07T08:46:10.343Z,995.56
2023-05-07T08:47:10.394Z,995.52
2023-05-07T08:48:09.420Z,995.59
2023-05-07T08:49:09.511Z,995.55
2023-05-07T08:50:09.483Z,995.57
2023-05-07T08:51:09.361Z,995.58
2023-05-07T08:52:10.126Z,995.54
2023-05-07T08:53:10.350Z,995.63
2023-05-07T08:54:09.340Z,995.60
2023-05-07T08:55:09.429Z,995.55
2023-05-07T08:56:09.345Z,995.59
2023-05-07T08:57:09.314Z,995.59
2023-05-07T08:58:09.314Z,995.60
2023-05-07T08:59:09.297Z,995.63
2023-05-07T09:00:09.378Z,995.98
2023-05-07T09:02:16.181Z,995.87
2023-05-07T09:03:16.185Z,995.63
2023-05-07T09:04:16.309Z,995.69
2023-05-07T09:05:16.112Z,995.65
2023-05-07T09:06:16.121Z,995.69
2023-05-07T09:07:17.191Z,995.69
2023-05-07T09:08:17.272Z,995.87
2023-05-07T09:09:17.165Z,995.60
2023-05-07T09:10:17.171Z,995.80
2023-05-07T09:11:17.183Z,995.81
2023-05-07T09:12:17.154Z,995.83
2023-05-07T09:13:17.256Z,995.75
2023-05-07T09:14:19.061Z,995.80
2023-05-07T09:15:17.133Z,995.75
2023-05-07T09:16:17.160Z,995.83
2023-05-07T09:17:17.104Z,995.78
2023-05-07T09:18:17.146Z,995.88
2023-05-07T09:19:17.089Z,995.86
2023-05-07T09:20:17.167Z,995.84
2023-05-07T09:21:17.074Z,995.84
2023-05-07T09:22:17.061Z,995.82
2023-05-07T09:23:17.066Z,995.70
2023-05-07T09:24:17.045Z,995.72
2023-05-07T09:25:17.071Z,995.82
2023-05-07T09:26:17.031Z,995.85
2023-05-07T09:27:17.019Z,995.85
2023-05-07T09:28:19.007Z,995.68
2023-05-07T09:29:19.485Z,995.75
2023-05-07T09:30:17.054Z,995.73
2023-05-07T09:31:18.229Z,995.73
2023-05-07T09:32:17.032Z,995.73
2023-05-07T09:33:17.489Z,995.78
2023-05-07T09:34:16.977Z,995.71
2023-05-07T09:35:17.015Z,995.60
2023-05-07T09:36:17.053Z,995.80
2023-05-07T09:37:16.948Z,995.71
2023-05-07T09:38:16.935Z,995.65
2023-05-07T09:39:16.947Z,995.82
2023-05-07T09:40:16.926Z,995.64
2023-05-07T09:41:18.619Z,995.70
2023-05-07T09:42:16.942Z,995.75
2023-05-07T09:43:17.104Z,995.68
2023-05-07T09:44:16.907Z,995.79
2023-05-07T09:45:17.596Z,995.58
2023-05-07T09:46:16.913Z,995.71
2023-05-07T09:47:16.867Z,995.66
2023-05-07T09:48:16.891Z,995.67
2023-05-07T09:49:17.780Z,995.67
2023-05-07T09:50:17.631Z,995.86
2023-05-07T09:51:16.875Z,995.72
2023-05-07T09:52:17.053Z,995.68
2023-05-07T09:53:17.517Z,995.59
2023-05-07T09:54:16.909Z,995.70
2023-05-07T09:55:17.529Z,995.68
2023-05-07T09:56:16.810Z,995.68
2023-05-07T09:57:16.810Z,995.65
2023-05-07T09:58:16.796Z,995.61
2023-05-07T09:59:21.504Z,995.61
2023-05-07T10:00:16.855Z,995.72
2023-05-07T10:01:17.599Z,995.68
2023-05-07T10:02:16.831Z,995.60
2023-05-07T10:03:16.818Z,995.69
2023-05-07T10:04:16.759Z,995.73
2023-05-07T10:05:18.608Z,995.74
2023-05-07T10:06:16.727Z,995.66
2023-05-07T10:07:17.494Z,995.59
2023-05-07T10:08:16.777Z,995.58
2023-05-07T10:09:17.376Z,995.61
2023-05-07T10:10:16.740Z,995.59
2023-05-07T10:11:16.699Z,995.67
2023-05-07T10:12:16.748Z,995.54
2023-05-07T10:13:16.692Z,995.58
2023-05-07T10:14:16.675Z,995.57
2023-05-07T10:15:16.656Z,995.61
2023-05-07T10:16:16.664Z,995.64
2023-05-07T10:17:17.658Z,995.42
2023-05-07T10:18:16.727Z,995.68
2023-05-07T10:19:17.623Z,995.72
2023-05-07T10:20:16.682Z,995.57
2023-05-07T10:21:21.688Z,995.44
2023-05-07T10:22:22.498Z,995.57
2023-05-07T10:23:19.319Z,995.59
2023-05-07T10:24:16.594Z,995.49
2023-05-07T10:25:16.583Z,995.56
2023-05-07T10:26:16.584Z,995.51
2023-05-07T10:27:16.575Z,995.52
2023-05-07T10:28:18.088Z,995.55
2023-05-07T10:29:16.555Z,995.46
2023-05-07T10:30:16.554Z,995.57
2023-05-07T10:31:16.540Z,995.54
2023-05-07T10:32:16.557Z,995.56
2023-05-07T10:33:16.677Z,995.60
2023-05-07T10:34:16.519Z,995.55
2023-05-07T10:35:17.090Z,995.40
2023-05-07T10:36:16.502Z,995.50
2023-05-07T10:37:16.522Z,995.51
2023-05-07T10:38:19.107Z,995.50
2023-05-07T10:40:16.478Z,995.59
2023-05-07T10:41:17.034Z,995.55
2023-05-07T10:42:16.469Z,995.40
2023-05-07T10:43:18.019Z,995.49
2023-05-07T10:44:16.439Z,995.63
2023-05-07T10:45:16.448Z,995.49
2023-05-07T10:46:16.505Z,995.55
2023-05-07T10:47:18.098Z,995.78
2023-05-07T10:48:29.745Z,995.58
2023-05-07T10:49:18.405Z,995.68
2023-05-07T10:50:16.426Z,995.67
2023-05-07T10:51:20.036Z,995.70
2023-05-07T10:52:17.131Z,995.67
2023-05-07T10:53:16.369Z,995.73
2023-05-07T10:54:18.147Z,995.75
2023-05-07T10:55:16.706Z,995.63
2023-05-07T10:56:16.343Z,995.66
2023-05-07T10:57:18.066Z,995.54
2023-05-07T10:58:30.120Z,995.61
2023-05-07T10:59:18.325Z,995.61
2023-05-07T11:00:18.431Z,995.50
2023-05-07T11:01:18.374Z,995.57
2023-05-07T11:02:16.372Z,995.72
2023-05-07T11:03:16.312Z,995.57
2023-05-07T11:04:16.304Z,995.60
2023-05-07T11:05:16.325Z,995.66
2023-05-07T11:06:16.285Z,995.50
2023-05-07T11:07:16.281Z,995.62
2023-05-07T11:08:16.238Z,995.55
2023-05-07T11:09:16.247Z,995.58
2023-05-07T11:10:16.239Z,995.56
2023-05-07T11:11:16.242Z,995.61
2023-05-07T11:12:16.240Z,995.63
2023-05-07T11:13:19.079Z,995.53
2023-05-07T11:14:16.201Z,995.58
2023-05-07T11:15:16.186Z,995.50
2023-05-07T11:16:18.114Z,995.73
2023-05-07T11:17:16.175Z,995.62
2023-05-07T11:18:16.169Z,995.51
2023-05-07T11:19:16.182Z,995.75
2023-05-07T11:20:16.160Z,995.53
2023-05-07T11:21:16.142Z,995.42
2023-05-07T11:22:16.164Z,995.44
2023-05-07T11:23:16.126Z,995.56
2023-05-07T11:24:16.116Z,995.60
2023-05-07T11:25:17.612Z,995.53
2023-05-07T11:26:17.611Z,995.68
2023-05-07T11:27:16.137Z,995.56
2023-05-07T11:28:16.099Z,995.60
2023-05-07T11:29:16.090Z,995.44
2023-05-07T11:30:16.068Z,995.64
2023-05-07T11:31:16.071Z,995.45
2023-05-07T11:32:16.057Z,995.47
2023-05-07T11:33:16.084Z,995.38
2023-05-07T11:34:17.061Z,995.44
2023-05-07T11:35:16.035Z,995.48
2023-05-07T11:36:16.007Z,995.37
2023-05-07T11:37:17.623Z,995.51
2023-05-07T11:38:16.630Z,995.48
2023-05-07T11:39:15.989Z,995.52
2023-05-07T11:40:16.983Z,995.46
2023-05-07T11:41:15.970Z,995.48
2023-05-07T11:42:15.975Z,995.53
2023-05-07T11:43:16.029Z,995.48
2023-05-07T11:44:15.957Z,995.52
2023-05-07T11:45:15.945Z,995.47
2023-05-07T11:46:15.947Z,995.49
2023-05-07T11:47:15.919Z,995.53
2023-05-07T11:48:15.929Z,995.50
2023-05-07T11:49:18.621Z,995.69
2023-05-07T11:50:15.917Z,995.54
2023-05-07T11:51:15.924Z,995.48
2023-05-07T11:52:15.902Z,995.64
2023-05-07T11:53:15.885Z,995.59
2023-05-07T11:54:15.900Z,995.56
2023-05-07T11:55:16.540Z,995.62
2023-05-07T11:56:15.916Z,995.76
2023-05-07T11:57:18.623Z,995.74
2023-05-07T11:59:15.827Z,995.65
2023-05-07T12:00:15.834Z,995.57
2023-05-07T12:01:15.815Z,995.66
2023-05-07T12:02:15.876Z,995.65
2023-05-07T12:03:15.881Z,995.69
2023-05-07T12:04:16.263Z,995.72
2023-05-07T12:05:15.848Z,995.81
2023-05-07T12:06:15.827Z,995.64
2023-05-07T12:07:15.800Z,995.66
2023-05-07T12:08:15.773Z,995.70
2023-05-07T12:09:16.660Z,995.81
2023-05-07T12:10:15.749Z,995.73
2023-05-07T12:11:15.796Z,995.67
2023-05-07T12:12:17.622Z,995.75
2023-05-07T12:13:15.778Z,995.64
2023-05-07T12:14:15.719Z,995.69
2023-05-07T12:15:19.537Z,995.65
2023-05-07T12:16:15.719Z,995.67
2023-05-07T12:17:15.862Z,995.56
2023-05-07T12:18:15.688Z,995.55
2023-05-07T12:19:16.014Z,995.60
2023-05-07T12:20:16.658Z,995.58
2023-05-07T12:21:15.679Z,995.57
2023-05-07T12:22:15.648Z,995.56
2023-05-07T12:23:17.541Z,995.45
2023-05-07T12:24:15.660Z,995.52
2023-05-07T12:25:15.854Z,995.72
2023-05-07T12:26:15.627Z,995.48
2023-05-07T12:27:15.680Z,995.54
2023-05-07T12:28:15.602Z,995.44
2023-05-07T12:29:15.603Z,995.57
2023-05-07T12:30:15.606Z,995.49
2023-05-07T12:31:15.762Z,995.40
2023-05-07T12:32:15.607Z,995.53